sensor_id;sensor_type;location;lat;lon;timestamp;P1;durP1;ratioP1;P2;durP2;ratioP2
76807;SDS011;65758;45.458;11.062;2023-12-20T00:03:33;11.50;;;7.80;;
76807;SDS011;65758;45.458;11.062;2023-12-20T00:06:08;13.70;;;8.70;;
76807;SDS011;65758;45.458;11.062;2023-12-20T00:08:35;14.60;;;9.10;;
76807;SDS011;65758;45.458;11.062;2023-12-20T00:11:02;14.30;;;8.10;;
76807;SDS011;65758;45.458;11.062;2023-12-20T00:13:29;12.60;;;8.60;;
76807;SDS011;65758;45.458;11.062;2023-12-20T00:15:56;12.60;;;9.00;;
76807;SDS011;65758;45.458;11.062;2023-12-20T00:18:23;12.10;;;8.50;;
76807;SDS011;65758;45.458;11.062;2023-12-20T00:23:17;12.20;;;7.60;;
76807;SDS011;65758;45.458;11.062;2023-12-20T00:28:10;12.70;;;7.40;;
76807;SDS011;65758;45.458;11.062;2023-12-20T00:30:37;13.40;;;8.90;;
76807;SDS011;65758;45.458;11.062;2023-12-20T00:33:04;33.80;;;19.30;;
76807;SDS011;65758;45.458;11.062;2023-12-20T00:35:31;36.40;;;19.70;;
76807;SDS011;65758;45.458;11.062;2023-12-20T00:40:25;13.80;;;8.20;;
76807;SDS011;65758;45.458;11.062;2023-12-20T00:42:52;15.20;;;9.00;;
76807;SDS011;65758;45.458;11.062;2023-12-20T00:45:19;14.50;;;9.30;;
76807;SDS011;65758;45.458;11.062;2023-12-20T00:50:13;12.40;;;8.50;;
76807;SDS011;65758;45.458;11.062;2023-12-20T00:52:40;16.40;;;8.60;;
76807;SDS011;65758;45.458;11.062;2023-12-20T00:57:34;16.60;;;9.40;;
76807;SDS011;65758;45.458;11.062;2023-12-20T01:00:01;15.00;;;10.10;;
76807;SDS011;65758;45.458;11.062;2023-12-20T01:02:29;16.00;;;10.40;;
76807;SDS011;65758;45.458;11.062;2023-12-20T01:04:55;15.60;;;10.30;;
76807;SDS011;65758;45.458;11.062;2023-12-20T01:09:49;15.60;;;10.70;;
76807;SDS011;65758;45.458;11.062;2023-12-20T01:12:16;12.60;;;8.80;;
76807;SDS011;65758;45.458;11.062;2023-12-20T01:17:09;12.00;;;8.80;;
76807;SDS011;65758;45.458;11.062;2023-12-20T01:22:04;12.30;;;7.80;;
76807;SDS011;65758;45.458;11.062;2023-12-20T01:24:31;14.60;;;8.00;;
76807;SDS011;65758;45.458;11.062;2023-12-20T01:26:57;13.00;;;8.50;;
76807;SDS011;65758;45.458;11.062;2023-12-20T01:31:51;12.60;;;7.70;;
76807;SDS011;65758;45.458;11.062;2023-12-20T01:34:18;12.00;;;8.40;;
76807;SDS011;65758;45.458;11.062;2023-12-20T01:36:45;13.10;;;8.80;;
76807;SDS011;65758;45.458;11.062;2023-12-20T01:39:12;12.20;;;8.70;;
76807;SDS011;65758;45.458;11.062;2023-12-20T01:41:53;12.30;;;7.80;;
76807;SDS011;65758;45.458;11.062;2023-12-20T01:44:20;12.40;;;7.60;;
76807;SDS011;65758;45.458;11.062;2023-12-20T01:46:47;12.30;;;7.90;;
76807;SDS011;65758;45.458;11.062;2023-12-20T01:49:14;12.40;;;6.90;;
76807;SDS011;65758;45.458;11.062;2023-12-20T01:51:42;13.70;;;7.60;;
76807;SDS011;65758;45.458;11.062;2023-12-20T01:54:10;10.30;;;6.90;;
76807;SDS011;65758;45.458;11.062;2023-12-20T01:56:37;13.80;;;8.10;;
76807;SDS011;65758;45.458;11.062;2023-12-20T01:59:05;12.20;;;8.00;;
76807;SDS011;65758;45.458;11.062;2023-12-20T02:01:34;13.40;;;8.10;;
76807;SDS011;65758;45.458;11.062;2023-12-20T02:08:22;12.40;;;6.80;;
76807;SDS011;65758;45.458;11.062;2023-12-20T02:13:16;11.20;;;7.80;;
76807;SDS011;65758;45.458;11.062;2023-12-20T02:15:43;13.20;;;7.70;;
76807;SDS011;65758;45.458;11.062;2023-12-20T02:18:10;12.80;;;8.00;;
76807;SDS011;65758;45.458;11.062;2023-12-20T02:20:42;10.20;;;7.40;;
76807;SDS011;65758;45.458;11.062;2023-12-20T02:25:35;11.60;;;7.40;;
76807;SDS011;65758;45.458;11.062;2023-12-20T02:30:28;14.70;;;8.60;;
76807;SDS011;65758;45.458;11.062;2023-12-20T02:35:22;17.40;;;9.50;;
76807;SDS011;65758;45.458;11.062;2023-12-20T02:37:49;13.40;;;8.10;;
76807;SDS011;65758;45.458;11.062;2023-12-20T02:40:16;12.80;;;8.20;;
76807;SDS011;65758;45.458;11.062;2023-12-20T02:42:43;14.80;;;8.60;;
76807;SDS011;65758;45.458;11.062;2023-12-20T02:45:10;12.90;;;8.90;;
76807;SDS011;65758;45.458;11.062;2023-12-20T02:47:36;14.40;;;8.30;;
76807;SDS011;65758;45.458;11.062;2023-12-20T02:52:30;13.20;;;9.70;;
76807;SDS011;65758;45.458;11.062;2023-12-20T02:54:57;12.50;;;7.50;;
76807;SDS011;65758;45.458;11.062;2023-12-20T02:57:24;14.30;;;8.50;;
76807;SDS011;65758;45.458;11.062;2023-12-20T03:02:17;10.80;;;8.50;;
76807;SDS011;65758;45.458;11.062;2023-12-20T03:07:10;11.50;;;7.60;;
76807;SDS011;65758;45.458;11.062;2023-12-20T03:09:38;14.10;;;7.10;;
76807;SDS011;65758;45.458;11.062;2023-12-20T03:12:25;12.60;;;8.00;;
76807;SDS011;65758;45.458;11.062;2023-12-20T03:17:18;14.70;;;8.10;;
76807;SDS011;65758;45.458;11.062;2023-12-20T03:19:47;12.50;;;7.80;;
76807;SDS011;65758;45.458;11.062;2023-12-20T03:22:14;14.30;;;8.30;;
76807;SDS011;65758;45.458;11.062;2023-12-20T03:24:41;14.20;;;7.90;;
76807;SDS011;65758;45.458;11.062;2023-12-20T03:29:34;13.10;;;7.10;;
76807;SDS011;65758;45.458;11.062;2023-12-20T03:32:01;12.70;;;7.10;;
76807;SDS011;65758;45.458;11.062;2023-12-20T03:34:28;11.70;;;7.30;;
76807;SDS011;65758;45.458;11.062;2023-12-20T03:36:55;11.00;;;7.10;;
76807;SDS011;65758;45.458;11.062;2023-12-20T03:39:22;11.70;;;8.00;;
76807;SDS011;65758;45.458;11.062;2023-12-20T03:44:16;12.90;;;7.70;;
76807;SDS011;65758;45.458;11.062;2023-12-20T03:49:09;9.60;;;5.80;;
76807;SDS011;65758;45.458;11.062;2023-12-20T03:54:03;11.40;;;6.50;;
76807;SDS011;65758;45.458;11.062;2023-12-20T03:56:30;12.60;;;7.40;;
76807;SDS011;65758;45.458;11.062;2023-12-20T03:58:56;12.30;;;7.40;;
76807;SDS011;65758;45.458;11.062;2023-12-20T04:01:23;13.10;;;7.80;;
76807;SDS011;65758;45.458;11.062;2023-12-20T04:03:50;11.30;;;6.80;;
76807;SDS011;65758;45.458;11.062;2023-12-20T04:06:17;11.50;;;6.30;;
76807;SDS011;65758;45.458;11.062;2023-12-20T04:08:45;10.60;;;6.60;;
76807;SDS011;65758;45.458;11.062;2023-12-20T04:11:12;10.70;;;7.60;;
76807;SDS011;65758;45.458;11.062;2023-12-20T04:13:38;15.30;;;10.10;;
76807;SDS011;65758;45.458;11.062;2023-12-20T04:18:32;26.00;;;15.20;;
76807;SDS011;65758;45.458;11.062;2023-12-20T04:20:59;21.50;;;12.60;;
76807;SDS011;65758;45.458;11.062;2023-12-20T04:25:53;16.80;;;11.50;;
76807;SDS011;65758;45.458;11.062;2023-12-20T04:28:20;17.10;;;10.00;;
76807;SDS011;65758;45.458;11.062;2023-12-20T04:33:13;15.00;;;9.60;;
76807;SDS011;65758;45.458;11.062;2023-12-20T04:35:40;16.60;;;11.00;;
76807;SDS011;65758;45.458;11.062;2023-12-20T04:38:09;12.70;;;9.80;;
76807;SDS011;65758;45.458;11.062;2023-12-20T04:43:02;11.60;;;7.20;;
76807;SDS011;65758;45.458;11.062;2023-12-20T04:45:29;10.50;;;6.20;;
76807;SDS011;65758;45.458;11.062;2023-12-20T04:47:56;10.80;;;6.00;;
76807;SDS011;65758;45.458;11.062;2023-12-20T04:50:23;10.20;;;6.50;;
76807;SDS011;65758;45.458;11.062;2023-12-20T04:52:50;9.30;;;6.00;;
76807;SDS011;65758;45.458;11.062;2023-12-20T04:55:17;11.10;;;6.90;;
76807;SDS011;65758;45.458;11.062;2023-12-20T05:00:11;11.30;;;7.10;;
76807;SDS011;65758;45.458;11.062;2023-12-20T05:02:38;10.90;;;6.90;;
76807;SDS011;65758;45.458;11.062;2023-12-20T05:07:32;12.00;;;7.00;;
76807;SDS011;65758;45.458;11.062;2023-12-20T05:09:59;11.00;;;6.70;;
76807;SDS011;65758;45.458;11.062;2023-12-20T05:12:26;11.20;;;7.50;;
76807;SDS011;65758;45.458;11.062;2023-12-20T05:14:53;12.50;;;6.90;;
76807;SDS011;65758;45.458;11.062;2023-12-20T05:19:47;10.30;;;6.40;;
76807;SDS011;65758;45.458;11.062;2023-12-20T05:22:13;9.60;;;6.30;;
76807;SDS011;65758;45.458;11.062;2023-12-20T05:27:07;8.40;;;5.60;;
76807;SDS011;65758;45.458;11.062;2023-12-20T05:29:34;10.40;;;6.50;;
76807;SDS011;65758;45.458;11.062;2023-12-20T05:32:00;9.80;;;6.20;;
76807;SDS011;65758;45.458;11.062;2023-12-20T05:34:27;15.60;;;12.20;;
76807;SDS011;65758;45.458;11.062;2023-12-20T05:36:54;16.90;;;12.90;;
76807;SDS011;65758;45.458;11.062;2023-12-20T05:41:48;11.60;;;7.30;;
76807;SDS011;65758;45.458;11.062;2023-12-20T05:46:41;12.20;;;7.30;;
76807;SDS011;65758;45.458;11.062;2023-12-20T05:49:08;9.00;;;6.30;;
76807;SDS011;65758;45.458;11.062;2023-12-20T05:51:36;12.80;;;6.60;;
76807;SDS011;65758;45.458;11.062;2023-12-20T05:54:02;11.60;;;6.70;;
76807;SDS011;65758;45.458;11.062;2023-12-20T05:56:30;11.70;;;6.80;;
76807;SDS011;65758;45.458;11.062;2023-12-20T06:01:25;10.50;;;5.90;;
76807;SDS011;65758;45.458;11.062;2023-12-20T06:03:52;9.80;;;6.50;;
76807;SDS011;65758;45.458;11.062;2023-12-20T06:06:19;8.50;;;6.00;;
76807;SDS011;65758;45.458;11.062;2023-12-20T06:11:12;11.70;;;6.90;;
76807;SDS011;65758;45.458;11.062;2023-12-20T06:13:40;10.10;;;6.60;;
76807;SDS011;65758;45.458;11.062;2023-12-20T06:16:07;10.90;;;7.40;;
76807;SDS011;65758;45.458;11.062;2023-12-20T06:18:34;13.90;;;9.50;;
76807;SDS011;65758;45.458;11.062;2023-12-20T06:21:04;19.30;;;13.90;;
76807;SDS011;65758;45.458;11.062;2023-12-20T06:23:31;18.50;;;13.30;;
76807;SDS011;65758;45.458;11.062;2023-12-20T06:25:57;13.50;;;9.90;;
76807;SDS011;65758;45.458;11.062;2023-12-20T06:28:24;15.90;;;9.80;;
76807;SDS011;65758;45.458;11.062;2023-12-20T06:33:19;14.90;;;9.50;;
76807;SDS011;65758;45.458;11.062;2023-12-20T06:35:48;15.00;;;9.40;;
76807;SDS011;65758;45.458;11.062;2023-12-20T06:38:15;14.40;;;9.30;;
76807;SDS011;65758;45.458;11.062;2023-12-20T06:40:42;16.00;;;9.30;;
76807;SDS011;65758;45.458;11.062;2023-12-20T06:43:09;14.60;;;9.00;;
76807;SDS011;65758;45.458;11.062;2023-12-20T06:45:51;13.30;;;8.70;;
76807;SDS011;65758;45.458;11.062;2023-12-20T06:50:46;13.40;;;8.60;;
76807;SDS011;65758;45.458;11.062;2023-12-20T06:53:13;12.70;;;9.10;;
76807;SDS011;65758;45.458;11.062;2023-12-20T06:58:06;11.30;;;7.50;;
76807;SDS011;65758;45.458;11.062;2023-12-20T07:00:33;10.90;;;7.30;;
76807;SDS011;65758;45.458;11.062;2023-12-20T07:03:00;14.30;;;7.70;;
76807;SDS011;65758;45.458;11.062;2023-12-20T07:07:54;12.10;;;8.10;;
76807;SDS011;65758;45.458;11.062;2023-12-20T07:12:48;18.80;;;9.70;;
76807;SDS011;65758;45.458;11.062;2023-12-20T07:15:15;19.90;;;11.20;;
76807;SDS011;65758;45.458;11.062;2023-12-20T07:20:10;16.10;;;9.70;;
76807;SDS011;65758;45.458;11.062;2023-12-20T07:22:38;14.70;;;9.60;;
76807;SDS011;65758;45.458;11.062;2023-12-20T07:25:06;16.00;;;11.20;;
76807;SDS011;65758;45.458;11.062;2023-12-20T07:27:34;14.90;;;9.80;;
76807;SDS011;65758;45.458;11.062;2023-12-20T07:32:27;17.80;;;8.50;;
76807;SDS011;65758;45.458;11.062;2023-12-20T07:34:54;13.00;;;8.20;;
76807;SDS011;65758;45.458;11.062;2023-12-20T07:37:21;14.60;;;8.40;;
76807;SDS011;65758;45.458;11.062;2023-12-20T07:39:48;12.60;;;10.10;;
76807;SDS011;65758;45.458;11.062;2023-12-20T07:42:15;16.60;;;9.90;;
76807;SDS011;65758;45.458;11.062;2023-12-20T07:44:42;16.40;;;11.00;;
76807;SDS011;65758;45.458;11.062;2023-12-20T07:47:09;21.50;;;12.50;;
76807;SDS011;65758;45.458;11.062;2023-12-20T07:52:02;18.40;;;12.30;;
76807;SDS011;65758;45.458;11.062;2023-12-20T07:54:29;17.30;;;12.50;;
76807;SDS011;65758;45.458;11.062;2023-12-20T07:59:23;16.60;;;10.80;;
76807;SDS011;65758;45.458;11.062;2023-12-20T08:01:58;16.40;;;10.20;;
76807;SDS011;65758;45.458;11.062;2023-12-20T08:04:26;15.20;;;9.30;;
76807;SDS011;65758;45.458;11.062;2023-12-20T08:06:53;16.00;;;10.20;;
76807;SDS011;65758;45.458;11.062;2023-12-20T08:09:20;16.70;;;9.40;;
76807;SDS011;65758;45.458;11.062;2023-12-20T08:11:47;20.50;;;10.30;;
76807;SDS011;65758;45.458;11.062;2023-12-20T08:14:15;13.60;;;10.30;;
76807;SDS011;65758;45.458;11.062;2023-12-20T08:16:42;16.00;;;10.00;;
76807;SDS011;65758;45.458;11.062;2023-12-20T08:21:36;17.20;;;10.50;;
76807;SDS011;65758;45.458;11.062;2023-12-20T08:24:04;15.50;;;9.40;;
76807;SDS011;65758;45.458;11.062;2023-12-20T08:26:32;18.00;;;10.60;;
76807;SDS011;65758;45.458;11.062;2023-12-20T08:28:59;17.20;;;10.90;;
76807;SDS011;65758;45.458;11.062;2023-12-20T08:31:28;25.60;;;14.70;;
76807;SDS011;65758;45.458;11.062;2023-12-20T08:33:55;25.30;;;14.30;;
76807;SDS011;65758;45.458;11.062;2023-12-20T08:36:23;22.50;;;13.50;;
76807;SDS011;65758;45.458;11.062;2023-12-20T08:38:51;21.30;;;12.60;;
76807;SDS011;65758;45.458;11.062;2023-12-20T08:41:17;17.40;;;11.40;;
76807;SDS011;65758;45.458;11.062;2023-12-20T08:43:44;16.40;;;11.80;;
76807;SDS011;65758;45.458;11.062;2023-12-20T08:46:11;22.60;;;12.10;;
76807;SDS011;65758;45.458;11.062;2023-12-20T08:48:39;17.20;;;12.30;;
76807;SDS011;65758;45.458;11.062;2023-12-20T08:51:06;18.30;;;11.50;;
76807;SDS011;65758;45.458;11.062;2023-12-20T08:53:35;18.20;;;11.80;;
76807;SDS011;65758;45.458;11.062;2023-12-20T08:56:02;17.50;;;11.00;;
76807;SDS011;65758;45.458;11.062;2023-12-20T08:58:29;19.10;;;11.40;;
76807;SDS011;65758;45.458;11.062;2023-12-20T09:00:56;17.70;;;11.10;;
76807;SDS011;65758;45.458;11.062;2023-12-20T09:03:24;19.00;;;11.30;;
76807;SDS011;65758;45.458;11.062;2023-12-20T09:08:18;21.90;;;12.00;;
76807;SDS011;65758;45.458;11.062;2023-12-20T09:10:45;17.00;;;11.80;;
76807;SDS011;65758;45.458;11.062;2023-12-20T09:13:12;21.30;;;11.90;;
76807;SDS011;65758;45.458;11.062;2023-12-20T09:15:39;21.40;;;12.30;;
76807;SDS011;65758;45.458;11.062;2023-12-20T09:20:33;22.90;;;13.60;;
76807;SDS011;65758;45.458;11.062;2023-12-20T09:23:01;30.40;;;13.50;;
76807;SDS011;65758;45.458;11.062;2023-12-20T09:27:55;22.60;;;14.00;;
76807;SDS011;65758;45.458;11.062;2023-12-20T09:30:22;30.00;;;14.30;;
76807;SDS011;65758;45.458;11.062;2023-12-20T09:32:53;23.20;;;14.30;;
76807;SDS011;65758;45.458;11.062;2023-12-20T09:35:21;25.60;;;14.00;;
76807;SDS011;65758;45.458;11.062;2023-12-20T09:37:49;30.00;;;14.80;;
76807;SDS011;65758;45.458;11.062;2023-12-20T09:40:18;22.90;;;14.40;;
76807;SDS011;65758;45.458;11.062;2023-12-20T09:42:59;25.20;;;14.80;;
76807;SDS011;65758;45.458;11.062;2023-12-20T09:45:37;26.60;;;15.00;;
76807;SDS011;65758;45.458;11.062;2023-12-20T09:48:07;25.00;;;16.00;;
76807;SDS011;65758;45.458;11.062;2023-12-20T09:50:36;24.60;;;14.40;;
76807;SDS011;65758;45.458;11.062;2023-12-20T09:53:03;23.40;;;12.70;;
76807;SDS011;65758;45.458;11.062;2023-12-20T09:55:31;19.60;;;12.90;;
76807;SDS011;65758;45.458;11.062;2023-12-20T09:57:59;25.30;;;13.70;;
76807;SDS011;65758;45.458;11.062;2023-12-20T10:00:27;23.70;;;14.20;;
76807;SDS011;65758;45.458;11.062;2023-12-20T10:02:57;23.50;;;14.20;;
76807;SDS011;65758;45.458;11.062;2023-12-20T10:05:29;19.40;;;12.70;;
76807;SDS011;65758;45.458;11.062;2023-12-20T10:08:00;21.60;;;13.20;;
76807;SDS011;65758;45.458;11.062;2023-12-20T10:10:28;24.30;;;13.10;;
76807;SDS011;65758;45.458;11.062;2023-12-20T10:13:10;20.70;;;13.40;;
76807;SDS011;65758;45.458;11.062;2023-12-20T10:15:39;21.80;;;13.40;;
76807;SDS011;65758;45.458;11.062;2023-12-20T10:18:08;18.00;;;13.60;;
76807;SDS011;65758;45.458;11.062;2023-12-20T10:20:36;19.80;;;12.90;;
76807;SDS011;65758;45.458;11.062;2023-12-20T10:23:03;19.90;;;13.00;;
76807;SDS011;65758;45.458;11.062;2023-12-20T10:25:30;19.80;;;13.70;;
76807;SDS011;65758;45.458;11.062;2023-12-20T10:28:12;24.30;;;13.20;;
76807;SDS011;65758;45.458;11.062;2023-12-20T10:30:42;20.40;;;13.70;;
76807;SDS011;65758;45.458;11.062;2023-12-20T10:33:10;22.70;;;13.50;;
76807;SDS011;65758;45.458;11.062;2023-12-20T10:35:38;22.60;;;13.20;;
76807;SDS011;65758;45.458;11.062;2023-12-20T10:38:10;21.30;;;13.10;;
76807;SDS011;65758;45.458;11.062;2023-12-20T10:40:40;24.60;;;13.40;;
76807;SDS011;65758;45.458;11.062;2023-12-20T10:43:07;25.00;;;12.60;;
76807;SDS011;65758;45.458;11.062;2023-12-20T10:45:35;25.60;;;13.30;;
76807;SDS011;65758;45.458;11.062;2023-12-20T10:48:03;18.50;;;12.50;;
76807;SDS011;65758;45.458;11.062;2023-12-20T10:50:31;17.80;;;12.20;;
76807;SDS011;65758;45.458;11.062;2023-12-20T10:52:58;22.00;;;12.90;;
76807;SDS011;65758;45.458;11.062;2023-12-20T10:55:26;22.40;;;13.90;;
76807;SDS011;65758;45.458;11.062;2023-12-20T10:57:56;20.80;;;12.80;;
76807;SDS011;65758;45.458;11.062;2023-12-20T11:02:57;21.30;;;12.60;;
76807;SDS011;65758;45.458;11.062;2023-12-20T11:05:43;20.20;;;13.50;;
76807;SDS011;65758;45.458;11.062;2023-12-20T11:08:19;22.30;;;13.20;;
76807;SDS011;65758;45.458;11.062;2023-12-20T11:11:13;21.50;;;13.90;;
76807;SDS011;65758;45.458;11.062;2023-12-20T11:13:55;24.00;;;13.70;;
76807;SDS011;65758;45.458;11.062;2023-12-20T11:16:33;21.60;;;12.70;;
76807;SDS011;65758;45.458;11.062;2023-12-20T11:19:17;23.20;;;13.20;;
76807;SDS011;65758;45.458;11.062;2023-12-20T11:21:45;17.90;;;13.30;;
76807;SDS011;65758;45.458;11.062;2023-12-20T11:24:13;18.80;;;13.40;;
76807;SDS011;65758;45.458;11.062;2023-12-20T11:26:46;24.70;;;13.20;;
76807;SDS011;65758;45.458;11.062;2023-12-20T11:29:33;21.40;;;12.80;;
76807;SDS011;65758;45.458;11.062;2023-12-20T11:32:28;33.00;;;14.00;;
76807;SDS011;65758;45.458;11.062;2023-12-20T11:34:58;18.20;;;12.00;;
76807;SDS011;65758;45.458;11.062;2023-12-20T11:40:02;17.20;;;12.70;;
76807;SDS011;65758;45.458;11.062;2023-12-20T11:42:38;18.00;;;11.70;;
76807;SDS011;65758;45.458;11.062;2023-12-20T11:45:09;19.30;;;13.10;;
76807;SDS011;65758;45.458;11.062;2023-12-20T11:47:49;17.60;;;13.00;;
76807;SDS011;65758;45.458;11.062;2023-12-20T11:50:17;18.80;;;12.00;;
76807;SDS011;65758;45.458;11.062;2023-12-20T11:52:45;21.70;;;13.00;;
76807;SDS011;65758;45.458;11.062;2023-12-20T11:55:12;20.00;;;13.00;;
76807;SDS011;65758;45.458;11.062;2023-12-20T11:57:39;18.20;;;12.40;;
76807;SDS011;65758;45.458;11.062;2023-12-20T12:00:06;19.40;;;13.70;;
76807;SDS011;65758;45.458;11.062;2023-12-20T12:02:39;17.60;;;13.40;;
76807;SDS011;65758;45.458;11.062;2023-12-20T12:07:34;22.70;;;12.50;;
76807;SDS011;65758;45.458;11.062;2023-12-20T12:10:02;19.10;;;11.60;;
76807;SDS011;65758;45.458;11.062;2023-12-20T12:12:30;16.80;;;11.40;;
76807;SDS011;65758;45.458;11.062;2023-12-20T12:14:59;17.30;;;10.90;;
76807;SDS011;65758;45.458;11.062;2023-12-20T12:17:25;20.40;;;11.70;;
76807;SDS011;65758;45.458;11.062;2023-12-20T12:20:01;17.50;;;9.80;;
76807;SDS011;65758;45.458;11.062;2023-12-20T12:22:31;16.30;;;10.40;;
76807;SDS011;65758;45.458;11.062;2023-12-20T12:24:59;19.10;;;11.20;;
76807;SDS011;65758;45.458;11.062;2023-12-20T12:27:35;17.80;;;11.20;;
76807;SDS011;65758;45.458;11.062;2023-12-20T12:30:05;20.60;;;13.30;;
76807;SDS011;65758;45.458;11.062;2023-12-20T12:32:36;17.60;;;11.90;;
76807;SDS011;65758;45.458;11.062;2023-12-20T12:35:04;21.00;;;12.40;;
76807;SDS011;65758;45.458;11.062;2023-12-20T12:37:37;17.30;;;11.40;;
76807;SDS011;65758;45.458;11.062;2023-12-20T12:40:15;15.60;;;10.10;;
76807;SDS011;65758;45.458;11.062;2023-12-20T12:42:44;17.00;;;11.70;;
76807;SDS011;65758;45.458;11.062;2023-12-20T12:45:12;21.00;;;11.80;;
76807;SDS011;65758;45.458;11.062;2023-12-20T12:47:39;19.00;;;11.40;;
76807;SDS011;65758;45.458;11.062;2023-12-20T12:50:06;17.50;;;10.50;;
76807;SDS011;65758;45.458;11.062;2023-12-20T12:52:33;21.10;;;11.90;;
76807;SDS011;65758;45.458;11.062;2023-12-20T12:55:02;14.90;;;10.40;;
76807;SDS011;65758;45.458;11.062;2023-12-20T12:57:32;16.30;;;12.70;;
76807;SDS011;65758;45.458;11.062;2023-12-20T13:00:00;18.30;;;12.20;;
76807;SDS011;65758;45.458;11.062;2023-12-20T13:02:29;17.20;;;11.10;;
76807;SDS011;65758;45.458;11.062;2023-12-20T13:04:55;18.00;;;11.60;;
76807;SDS011;65758;45.458;11.062;2023-12-20T13:07:22;17.40;;;11.10;;
76807;SDS011;65758;45.458;11.062;2023-12-20T13:09:49;17.50;;;11.80;;
76807;SDS011;65758;45.458;11.062;2023-12-20T13:12:16;19.60;;;12.90;;
76807;SDS011;65758;45.458;11.062;2023-12-20T13:14:43;25.00;;;13.10;;
76807;SDS011;65758;45.458;11.062;2023-12-20T13:17:10;16.70;;;12.20;;
76807;SDS011;65758;45.458;11.062;2023-12-20T13:19:37;18.20;;;11.90;;
76807;SDS011;65758;45.458;11.062;2023-12-20T13:22:04;14.20;;;9.90;;
76807;SDS011;65758;45.458;11.062;2023-12-20T13:24:31;17.60;;;11.90;;
76807;SDS011;65758;45.458;11.062;2023-12-20T13:26:58;20.10;;;12.40;;
76807;SDS011;65758;45.458;11.062;2023-12-20T13:29:25;18.90;;;11.00;;
76807;SDS011;65758;45.458;11.062;2023-12-20T13:31:53;17.60;;;11.80;;
76807;SDS011;65758;45.458;11.062;2023-12-20T13:34:20;18.50;;;11.20;;
76807;SDS011;65758;45.458;11.062;2023-12-20T13:36:48;17.00;;;10.20;;
76807;SDS011;65758;45.458;11.062;2023-12-20T13:39:17;17.40;;;12.00;;
76807;SDS011;65758;45.458;11.062;2023-12-20T13:41:44;21.20;;;11.40;;
76807;SDS011;65758;45.458;11.062;2023-12-20T13:44:11;16.40;;;11.00;;
76807;SDS011;65758;45.458;11.062;2023-12-20T13:46:39;18.70;;;11.60;;
76807;SDS011;65758;45.458;11.062;2023-12-20T13:49:07;16.50;;;11.20;;
76807;SDS011;65758;45.458;11.062;2023-12-20T13:51:34;16.30;;;11.10;;
76807;SDS011;65758;45.458;11.062;2023-12-20T13:54:01;15.90;;;10.70;;
76807;SDS011;65758;45.458;11.062;2023-12-20T13:56:28;17.00;;;10.80;;
76807;SDS011;65758;45.458;11.062;2023-12-20T13:58:55;17.00;;;11.70;;
76807;SDS011;65758;45.458;11.062;2023-12-20T14:01:22;20.50;;;12.60;;
76807;SDS011;65758;45.458;11.062;2023-12-20T14:03:50;19.00;;;11.30;;
76807;SDS011;65758;45.458;11.062;2023-12-20T14:06:17;19.00;;;12.50;;
76807;SDS011;65758;45.458;11.062;2023-12-20T14:08:44;22.20;;;14.90;;
76807;SDS011;65758;45.458;11.062;2023-12-20T14:11:11;26.80;;;15.10;;
76807;SDS011;65758;45.458;11.062;2023-12-20T14:13:38;22.30;;;13.10;;
76807;SDS011;65758;45.458;11.062;2023-12-20T14:16:05;25.10;;;12.90;;
76807;SDS011;65758;45.458;11.062;2023-12-20T14:22:58;22.40;;;13.30;;
76807;SDS011;65758;45.458;11.062;2023-12-20T14:25:25;22.90;;;14.70;;
76807;SDS011;65758;45.458;11.062;2023-12-20T14:27:55;24.30;;;14.70;;
76807;SDS011;65758;45.458;11.062;2023-12-20T14:30:23;29.00;;;16.50;;
76807;SDS011;65758;45.458;11.062;2023-12-20T14:32:49;24.90;;;14.20;;
76807;SDS011;65758;45.458;11.062;2023-12-20T14:35:16;25.90;;;14.90;;
76807;SDS011;65758;45.458;11.062;2023-12-20T14:37:43;24.00;;;15.70;;
76807;SDS011;65758;45.458;11.062;2023-12-20T14:40:12;25.60;;;15.60;;
76807;SDS011;65758;45.458;11.062;2023-12-20T14:42:43;24.00;;;16.00;;
76807;SDS011;65758;45.458;11.062;2023-12-20T14:45:10;27.80;;;15.10;;
76807;SDS011;65758;45.458;11.062;2023-12-20T14:47:38;23.90;;;13.60;;
76807;SDS011;65758;45.458;11.062;2023-12-20T14:50:05;26.20;;;14.90;;
76807;SDS011;65758;45.458;11.062;2023-12-20T14:52:32;24.20;;;14.80;;
76807;SDS011;65758;45.458;11.062;2023-12-20T14:55:00;28.00;;;16.60;;
76807;SDS011;65758;45.458;11.062;2023-12-20T14:57:29;25.30;;;15.50;;
76807;SDS011;65758;45.458;11.062;2023-12-20T14:59:56;23.60;;;15.10;;
76807;SDS011;65758;45.458;11.062;2023-12-20T15:02:23;22.40;;;15.40;;
76807;SDS011;65758;45.458;11.062;2023-12-20T15:04:50;31.60;;;18.70;;
76807;SDS011;65758;45.458;11.062;2023-12-20T15:07:19;25.10;;;16.00;;
76807;SDS011;65758;45.458;11.062;2023-12-20T15:09:46;25.00;;;15.90;;
76807;SDS011;65758;45.458;11.062;2023-12-20T15:12:14;25.00;;;17.80;;
76807;SDS011;65758;45.458;11.062;2023-12-20T15:19:00;29.80;;;17.60;;
76807;SDS011;65758;45.458;11.062;2023-12-20T15:21:27;26.40;;;15.00;;
76807;SDS011;65758;45.458;11.062;2023-12-20T15:23:59;30.20;;;21.90;;
76807;SDS011;65758;45.458;11.062;2023-12-20T15:26:32;30.40;;;20.10;;
76807;SDS011;65758;45.458;11.062;2023-12-20T15:29:00;28.50;;;18.20;;
76807;SDS011;65758;45.458;11.062;2023-12-20T15:31:27;30.30;;;21.30;;
76807;SDS011;65758;45.458;11.062;2023-12-20T15:33:54;29.00;;;21.10;;
76807;SDS011;65758;45.458;11.062;2023-12-20T15:36:21;26.00;;;20.10;;
76807;SDS011;65758;45.458;11.062;2023-12-20T15:38:48;25.40;;;17.00;;
76807;SDS011;65758;45.458;11.062;2023-12-20T15:41:18;30.20;;;16.20;;
76807;SDS011;65758;45.458;11.062;2023-12-20T15:43:46;24.60;;;18.20;;
76807;SDS011;65758;45.458;11.062;2023-12-20T15:46:13;26.60;;;17.50;;
76807;SDS011;65758;45.458;11.062;2023-12-20T15:48:40;34.90;;;20.60;;
76807;SDS011;65758;45.458;11.062;2023-12-20T15:51:08;24.60;;;16.10;;
76807;SDS011;65758;45.458;11.062;2023-12-20T15:58:03;26.40;;;14.70;;
76807;SDS011;65758;45.458;11.062;2023-12-20T16:00:30;20.50;;;14.90;;
76807;SDS011;65758;45.458;11.062;2023-12-20T16:07:24;21.10;;;13.00;;
76807;SDS011;65758;45.458;11.062;2023-12-20T16:09:51;23.90;;;14.20;;
76807;SDS011;65758;45.458;11.062;2023-12-20T16:12:18;20.40;;;13.30;;
76807;SDS011;65758;45.458;11.062;2023-12-20T16:14:45;20.60;;;12.70;;
76807;SDS011;65758;45.458;11.062;2023-12-20T16:17:11;22.10;;;14.90;;
76807;SDS011;65758;45.458;11.062;2023-12-20T16:23:45;25.00;;;15.10;;
76807;SDS011;65758;45.458;11.062;2023-12-20T16:28:40;70.80;;;37.20;;
76807;SDS011;65758;45.458;11.062;2023-12-20T16:37:47;20.50;;;13.20;;
76807;SDS011;65758;45.458;11.062;2023-12-20T16:40:15;21.70;;;13.40;;
76807;SDS011;65758;45.458;11.062;2023-12-20T16:42:42;23.90;;;14.40;;
76807;SDS011;65758;45.458;11.062;2023-12-20T16:47:36;22.20;;;11.30;;
76807;SDS011;65758;45.458;11.062;2023-12-20T16:52:32;23.00;;;12.00;;
76807;SDS011;65758;45.458;11.062;2023-12-20T16:54:59;23.20;;;12.80;;
76807;SDS011;65758;45.458;11.062;2023-12-20T16:57:26;20.40;;;12.40;;
76807;SDS011;65758;45.458;11.062;2023-12-20T17:02:20;24.10;;;12.60;;
76807;SDS011;65758;45.458;11.062;2023-12-20T17:07:15;22.10;;;12.40;;